Time;durP1;ratioP1;P1;durP2;ratioP2;P2;SDS_P1;SDS_P2;PMS_P1;PMS_P2;Temp;Humidity;BMP_temperature;BMP_pressure;BME280_temperature;BME280_humidity;BME280_pressure;Samples;Min_cycle;Max_cycle;Signal;HPM_P1;HPM_P2
2021/11/28 00:00:42;;;;;;;4.47;0.28;;;;;;;0.60;58.09;99490.84;6199115;23;20028;-79
2021/11/28 00:03:18;;;;;;;;;;;;;;;;;;;;;
2021/11/28 00:06:00;;;;;;;2.50;0.55;;;;;;;0.68;58.06;99506.69;6221533;23;20032;-79
2021/11/28 00:08:41;;;;;;;0.98;0.25;;;;;;;0.51;58.23;99484.91;6195957;23;20038;-79
2021/11/28 00:11:43;;;;;;;4.25;0.52;;;;;;;0.64;58.63;99498.25;6193417;23;20064;-78
2021/11/28 00:14:10;;;;;;;0.40;0.40;;;;;;;0.65;58.73;99504.44;6198782;23;20301;-79
2021/11/28 00:16:39;;;;;;;0.90;0.30;;;;;;;0.56;58.01;99478.91;6223657;23;20003;-79
2021/11/28 00:19:06;;;;;;;5.38;0.43;;;;;;;0.51;58.41;99490.31;6197214;23;20007;-76
2021/11/28 00:21:52;;;;;;;1.25;0.25;;;;;;;0.61;58.28;99503.25;6205115;23;20376;-79
2021/11/28 00:24:20;;;;;;;0.47;0.20;;;;;;;0.62;59.23;99521.03;6198480;23;20005;-78
2021/11/28 00:26:53;;;;;;;1.10;0.35;;;;;;;0.60;58.16;99512.34;6193185;23;20001;-78
2021/11/28 00:29:19;;;;;;;3.03;0.32;;;;;;;0.66;58.36;99516.88;6191695;23;20378;-79
2021/11/28 00:31:47;;;;;;;0.32;0.22;;;;;;;0.40;58.19;99473.03;6189317;23;20008;-80
2021/11/28 00:34:13;;;;;;;0.63;0.35;;;;;;;0.47;58.73;99489.94;6191366;23;20539;-77
2021/11/28 00:36:38;;;;;;;0.65;0.30;;;;;;;0.66;58.78;99519.56;6164991;23;20005;-78
2021/11/28 00:39:04;;;;;;;6.47;0.25;;;;;;;0.61;57.80;99514.00;6190532;23;20004;-77
2021/11/28 00:41:32;;;;;;;0.50;0.30;;;;;;;0.62;59.08;99512.97;6215319;23;20000;-77
2021/11/28 00:43:59;;;;;;;4.63;0.75;;;;;;;0.52;58.91;99494.66;6184929;23;20527;-74
2021/11/28 00:46:25;;;;;;;5.82;0.30;;;;;;;0.57;58.06;99500.19;6164328;23;20070;-75
2021/11/28 00:48:50;;;;;;;0.63;0.20;;;;;;;0.55;58.13;99506.84;6182683;23;20834;-77
2021/11/28 00:54:04;;;;;;;1.55;0.95;;;;;;;0.51;58.87;99501.06;6220320;23;20060;-78
2021/11/28 00:56:30;;;;;;;2.78;0.35;;;;;;;0.39;59.21;99495.59;6162027;23;20009;-76
2021/11/28 00:59:00;;;;;;;1.38;0.30;;;;;;;0.44;59.36;99492.25;6164120;23;20012;-76
2021/11/28 01:01:30;;;;;;;0.70;0.20;;;;;;;0.37;58.49;99476.19;6201928;23;20012;-76
2021/11/28 01:04:06;;;;;;;2.60;0.52;;;;;;;0.46;58.52;99498.22;6178358;23;20020;-76
2021/11/28 01:09:22;;;;;;;2.13;0.20;;;;;;;0.43;59.03;99504.06;6208259;23;20008;-77
2021/11/28 01:11:50;;;;;;;1.48;0.28;;;;;;;0.40;58.53;99505.31;6180108;23;20004;-76
2021/11/28 01:14:15;;;;;;;0.70;0.30;;;;;;;0.37;58.94;99505.75;6190681;23;20009;-79
2021/11/28 01:16:44;;;;;;;0.63;0.30;;;;;;;0.30;59.99;99488.88;6189245;23;20067;-76
2021/11/28 01:19:10;;;;;;;4.00;0.35;;;;;;;0.30;59.56;99483.50;6181315;23;20021;-76
2021/11/28 01:21:44;;;;;;;2.03;0.75;;;;;;;0.36;60.05;99490.66;6152964;23;20417;-74
2021/11/28 01:24:30;;;;;;;0.68;0.52;;;;;;;0.17;59.96;99473.69;6129335;23;20329;-75
2021/11/28 01:27:00;;;;;;;0.50;0.30;;;;;;;0.14;60.58;99458.78;6151061;23;20001;-75
2021/11/28 01:29:26;;;;;;;0.52;0.30;;;;;;;0.38;59.51;99504.72;6152764;23;19997;-73
2021/11/28 01:32:01;;;;;;;0.38;0.25;;;;;;;0.28;59.37;99482.91;6148770;23;20117;-73
2021/11/28 01:34:27;;;;;;;6.93;0.30;;;;;;;0.22;59.96;99486.44;6121696;23;20057;-74
2021/11/28 01:36:56;;;;;;;1.27;0.55;;;;;;;0.35;60.84;99510.53;6124497;23;20376;-74
2021/11/28 01:39:22;;;;;;;3.33;0.43;;;;;;;0.29;59.88;99503.34;6122922;23;20045;-73
2021/11/28 01:41:51;;;;;;;0.60;0.20;;;;;;;0.22;60.56;99499.91;6125667;23;20092;-73
2021/11/28 01:44:19;;;;;;;3.22;0.32;;;;;;;0.23;60.04;99513.13;6101725;23;20009;-74
2021/11/28 01:46:46;;;;;;;2.05;0.22;;;;;;;0.24;60.66;99508.59;6149920;23;20420;-73
2021/11/28 01:49:12;;;;;;;2.92;0.30;;;;;;;0.21;61.21;99506.34;6152582;23;20017;-73
2021/11/28 01:51:39;;;;;;;3.03;0.30;;;;;;;0.10;61.13;99514.06;6124479;23;20013;-72
2021/11/28 01:54:11;;;;;;;0.40;0.30;;;;;;;0.15;60.92;99508.03;6150856;23;20055;-73
2021/11/28 01:56:39;;;;;;;0.47;0.20;;;;;;;0.33;61.25;99536.84;6123718;23;20005;-73
2021/11/28 01:59:05;;;;;;;1.60;0.30;;;;;;;0.21;61.11;99534.03;6124966;23;20080;-72
2021/11/28 02:01:33;;;;;;;0.52;0.38;;;;;;;0.25;60.72;99539.78;6125864;23;20012;-74
2021/11/28 02:04:07;;;;;;;3.85;0.20;;;;;;;0.30;59.90;99542.66;6102659;23;20005;-74
2021/11/28 02:06:32;;;;;;;0.93;0.32;;;;;;;0.27;60.51;99537.72;6152552;23;20009;-73
2021/11/28 02:09:02;;;;;;;3.28;0.43;;;;;;;0.31;61.05;99538.94;6125820;23;20010;-73
2021/11/28 02:11:28;;;;;;;2.90;0.28;;;;;;;0.30;60.94;99545.34;6152289;23;20005;-74
2021/11/28 02:13:53;;;;;;;0.63;0.35;;;;;;;0.34;61.26;99549.25;6150827;23;20315;-74
2021/11/28 02:16:24;;;;;;;5.85;0.52;;;;;;;0.18;60.31;99537.16;6149183;23;20088;-73
2021/11/28 02:18:50;;;;;;;1.10;0.40;;;;;;;0.35;60.08;99558.94;6138759;23;20016;-74
2021/11/28 02:21:16;;;;;;;1.15;0.28;;;;;;;0.32;60.49;99556.69;6212595;23;20027;-74
2021/11/28 02:23:53;;;;;;;5.50;0.30;;;;;;;0.26;61.18;99541.44;6189269;23;20384;-75
2021/11/28 02:26:27;;;;;;;1.92;0.47;;;;;;;0.30;60.22;99542.66;6191131;23;20020;-76
2021/11/28 02:28:53;;;;;;;0.40;0.20;;;;;;;0.21;60.58;99539.41;6186252;23;20416;-75
2021/11/28 02:31:19;;;;;;;7.43;0.20;;;;;;;0.34;60.83;99558.13;6139166;23;20015;-74
2021/11/28 02:33:45;;;;;;;5.35;0.85;;;;;;;0.35;60.63;99558.94;6214759;23;20005;-75
2021/11/28 02:36:10;;;;;;;4.30;0.40;;;;;;;0.31;60.43;99544.31;6185462;23;20008;-77
2021/11/28 02:38:36;;;;;;;2.80;0.40;;;;;;;0.34;60.36;99546.56;6160476;23;20008;-75
2021/11/28 02:41:04;;;;;;;1.35;0.77;;;;;;;0.27;60.46;99532.34;6189814;23;20014;-76
2021/11/28 02:43:38;;;;;;;6.78;0.30;;;;;;;0.21;60.81;99523.28;6190983;23;20080;-76
2021/11/28 02:46:08;;;;;;;6.53;0.65;;;;;;;0.43;60.41;99561.38;6166358;23;20100;-76
2021/11/28 02:48:38;;;;;;;3.15;0.50;;;;;;;0.28;60.95;99540.19;6211807;23;20076;-75
2021/11/28 02:51:04;;;;;;;0.35;0.15;;;;;;;0.34;60.28;99554.63;6216355;23;20007;-74
2021/11/28 02:53:30;;;;;;;1.42;0.32;;;;;;;0.45;60.59;99559.28;6187756;23;20005;-75
2021/11/28 02:56:00;;;;;;;1.35;0.30;;;;;;;0.35;61.42;99545.50;6213744;23;20005;-74
2021/11/28 02:58:55;;;;;;;1.20;0.88;;;;;;;0.41;60.74;99544.63;6213979;23;20004;-74
2021/11/28 03:01:23;;;;;;;1.67;0.22;;;;;;;0.46;61.01;99563.59;6187637;23;20032;-75
2021/11/28 03:03:52;;;;;;;3.45;0.22;;;;;;;0.43;60.25;99560.56;6190076;23;20004;-74
2021/11/28 03:06:28;;;;;;;0.55;0.30;;;;;;;0.37;61.50;99558.75;6216069;23;20005;-74
2021/11/28 03:08:54;;;;;;;1.83;0.40;;;;;;;0.44;60.96;99565.72;6226999;23;20088;-74
2021/11/28 03:11:24;;;;;;;1.25;0.30;;;;;;;0.35;60.73;99556.25;6169950;23;20004;-74
2021/11/28 03:13:52;;;;;;;2.47;0.25;;;;;;;0.35;60.25;99545.50;6189740;23;20043;-74
2021/11/28 03:16:27;;;;;;;2.08;0.28;;;;;;;0.43;60.57;99568.63;6186028;23;20004;-73
2021/11/28 03:18:53;;;;;;;0.13;0.10;;;;;;;0.42;60.56;99557.00;6213459;23;20017;-75
2021/11/28 03:21:32;;;;;;;2.15;0.30;;;;;;;0.45;61.33;99561.97;6189694;23;20091;-74
2021/11/28 03:24:05;;;;;;;0.70;0.25;;;;;;;0.32;61.91;99538.72;6216067;23;20005;-75
2021/11/28 03:26:35;;;;;;;8.07;0.32;;;;;;;0.38;61.29;99544.22;6214393;23;20023;-77
2021/11/28 03:29:06;;;;;;;1.83;0.40;;;;;;;0.32;61.59;99541.41;6188788;23;20009;-75
2021/11/28 03:32:12;;;;;;;0.60;0.25;;;;;;;0.24;60.92;99538.16;6215105;23;20023;-76
2021/11/28 03:34:48;;;;;;;;;;;;;;;;;;;;;
2021/11/28 03:37:24;;;;;;;;;;;;;;;;;;;;;
2021/11/28 03:39:52;;;;;;;2.22;0.88;;;;;;;0.33;61.92;99544.91;6213571;23;20084;-74
2021/11/28 03:42:17;;;;;;;1.35;0.35;;;;;;;0.23;61.92;99529.25;6189590;23;20005;-74
2021/11/28 03:44:54;;;;;;;0.17;0.17;;;;;;;0.34;62.32;99554.63;6163387;23;20009;-75
2021/11/28 03:47:20;;;;;;;1.88;0.40;;;;;;;0.15;62.41;99540.31;6189126;23;20588;-74
2021/11/28 03:49:46;;;;;;;2.13;0.47;;;;;;;0.14;61.48;99533.28;6191029;23;20035;-75
2021/11/28 03:52:11;;;;;;;0.20;0.20;;;;;;;0.14;61.78;99544.84;6189927;23;20050;-75
2021/11/28 03:54:37;;;;;;;1.33;0.43;;;;;;;0.15;61.46;99530.34;6163253;23;20009;-73
2021/11/28 03:57:04;;;;;;;1.13;0.40;;;;;;;0.15;61.93;99541.13;6188228;23;20021;-75
2021/11/28 03:59:30;;;;;;;0.50;0.30;;;;;;;0.12;61.71;99549.63;6188512;23;20008;-75
2021/11/28 04:01:59;;;;;;;2.95;0.30;;;;;;;0.10;61.32;99546.34;6216183;23;20000;-73
2021/11/28 04:04:25;;;;;;;1.30;0.40;;;;;;;0.08;61.73;99544.91;6191645;23;20020;-74
2021/11/28 04:06:51;;;;;;;0.28;0.20;;;;;;;-0.01;62.19;99541.66;6218746;23;20000;-74
2021/11/28 04:09:20;;;;;;;5.43;0.20;;;;;;;-0.02;61.95;99545.38;6163377;23;20036;-75
2021/11/28 04:11:45;;;;;;;0.17;0.10;;;;;;;0.02;62.57;99557.34;6165902;23;20012;-74
2021/11/28 04:14:21;;;;;;;;;;;;;;;;;;;;;
2021/11/28 04:16:54;;;;;;;1.55;0.28;;;;;;;-0.10;63.01;99537.56;6194515;23;20730;-74
2021/11/28 04:19:22;;;;;;;0.20;0.20;;;;;;;-0.06;62.87;99544.16;6218384;23;20020;-74
2021/11/28 04:21:48;;;;;;;5.72;0.30;;;;;;;-0.03;62.72;99547.25;6185967;23;20089;-72
2021/11/28 04:24:18;;;;;;;2.83;0.63;;;;;;;-0.10;63.09;99535.72;6167797;23;20036;-73
2021/11/28 04:26:46;;;;;;;0.20;0.13;;;;;;;0.01;62.09;99561.06;6219283;23;20001;-74
2021/11/28 04:29:13;;;;;;;0.68;0.25;;;;;;;-0.06;63.29;99549.53;6188990;23;20012;-75
2021/11/28 04:31:49;;;;;;;0.75;0.38;;;;;;;-0.12;62.57;99539.66;6218964;23;20024;-74
2021/11/28 04:34:17;;;;;;;0.43;0.43;;;;;;;-0.24;63.76;99536.84;6218489;23;20050;-74
2021/11/28 04:36:54;;;;;;;0.30;0.30;;;;;;;-0.09;63.90;99550.81;6168114;23;20008;-74
2021/11/28 04:39:22;;;;;;;0.52;0.20;;;;;;;-0.08;63.84;99559.69;6168081;23;20001;-74
2021/11/28 04:41:48;;;;;;;0.50;0.30;;;;;;;-0.24;63.75;99532.28;6218176;23;20011;-73
2021/11/28 04:44:24;;;;;;;;;;;;;;;;;;;;;
2021/11/28 04:47:20;;;;;;;0.45;0.22;;;;;;;-0.31;63.36;99520.78;6218072;23;20073;-74
2021/11/28 04:49:47;;;;;;;2.28;0.20;;;;;;;-0.08;63.78;99557.00;6190472;23;20103;-74
2021/11/28 04:52:15;;;;;;;0.32;0.08;;;;;;;-0.06;63.78;99554.91;6168337;23;20039;-74
2021/11/28 04:54:41;;;;;;;0.73;0.17;;;;;;;-0.22;63.45;99535.59;6188842;23;20091;-74
2021/11/28 04:57:15;;;;;;;3.35;0.85;;;;;;;-0.19;63.89;99539.69;6217917;23;20031;-74
2021/11/28 04:59:40;;;;;;;0.93;0.35;;;;;;;-0.08;63.84;99547.06;6187636;23;20679;-75
2021/11/28 05:02:06;;;;;;;2.03;0.40;;;;;;;-0.01;64.07;99563.16;6188883;23;20100;-74
2021/11/28 05:04:32;;;;;;;3.42;0.43;;;;;;;-0.04;63.58;99548.28;6188075;23;20087;-72
2021/11/28 05:06:57;;;;;;;1.50;0.20;;;;;;;-0.02;63.39;99546.19;6191478;23;20005;-75
2021/11/28 05:09:33;;;;;;;;;;;;;;;;;;;;;
2021/11/28 05:15:03;;;;;;;3.15;0.38;;;;;;;-0.09;63.29;99528.47;6215911;23;20107;-75
2021/11/28 05:17:34;;;;;;;0.25;0.25;;;;;;;-0.03;63.14;99544.56;6192344;23;20008;-76
2021/11/28 05:20:01;;;;;;;4.13;0.13;;;;;;;-0.22;63.29;99519.47;6191530;23;20020;-75
2021/11/28 05:22:34;;;;;;;2.10;0.20;;;;;;;-0.12;63.32;99529.72;6221015;23;20007;-76
2021/11/28 05:25:07;;;;;;;1.65;0.68;;;;;;;0.00;63.58;99543.31;6223141;23;20000;-73
2021/11/28 05:27:35;;;;;;;0.98;0.40;;;;;;;-0.01;63.91;99533.59;6222103;23;20060;-74
2021/11/28 05:30:08;;;;;;;2.55;0.30;;;;;;;-0.07;64.03;99523.72;6221934;23;20400;-75
2021/11/28 05:32:44;;;;;;;;;;;;;;;;;;;;;
2021/11/28 05:35:15;;;;;;;0.22;0.13;;;;;;;-0.19;62.78;99524.44;6203291;23;20028;-75
2021/11/28 05:37:41;;;;;;;2.20;0.45;;;;;;;-0.05;63.68;99551.19;6175577;23;20009;-75
2021/11/28 05:40:09;;;;;;;0.10;0.10;;;;;;;-0.19;63.75;99529.78;6214950;23;20009;-76
2021/11/28 05:42:44;;;;;;;0.28;0.25;;;;;;;-0.29;63.46;99516.03;6210836;23;20016;-74
2021/11/28 05:45:20;;;;;;;0.77;0.43;;;;;;;-0.17;63.25;99526.06;6209979;23;19997;-75
2021/11/28 05:47:45;;;;;;;1.55;0.17;;;;;;;-0.19;63.64;99513.66;6223824;23;20005;-74
2021/11/28 05:50:17;;;;;;;0.43;0.15;;;;;;;-0.09;63.62;99526.63;6170556;23;20026;-74
2021/11/28 05:52:43;;;;;;;2.17;0.30;;;;;;;-0.10;63.17;99538.41;6195256;23;20012;-75
2021/11/28 05:55:14;;;;;;;0.60;0.20;;;;;;;-0.20;63.63;99525.44;6192139;23;20004;-73
2021/11/28 05:57:40;;;;;;;3.88;0.20;;;;;;;-0.19;63.56;99534.31;6194534;23;20004;-73
2021/11/28 06:00:09;;;;;;;5.15;0.20;;;;;;;-0.19;63.86;99527.09;6168696;23;20052;-74
2021/11/28 06:02:42;;;;;;;1.98;0.25;;;;;;;-0.16;63.93;99523.16;6215725;23;20012;-74
2021/11/28 06:05:11;;;;;;;0.15;0.15;;;;;;;-0.15;64.33;99526.66;6187953;23;20435;-74
2021/11/28 06:07:38;;;;;;;2.33;0.30;;;;;;;-0.06;64.41;99544.16;6189648;23;20052;-72
2021/11/28 06:10:07;;;;;;;5.47;0.25;;;;;;;-0.12;63.45;99539.66;6188982;23;20596;-73
2021/11/28 06:12:33;;;;;;;1.02;0.28;;;;;;;-0.15;63.93;99540.09;6189546;23;20008;-73
2021/11/28 06:15:09;;;;;;;;;;;;;;;;;;;;;
2021/11/28 06:17:37;;;;;;;4.20;0.50;;;;;;;-0.15;64.38;99561.59;6216391;23;20052;-75
2021/11/28 06:20:09;;;;;;;8.27;0.40;;;;;;;-0.32;63.64;99535.25;6165099;23;20017;-74
2021/11/28 06:22:36;;;;;;;1.23;0.20;;;;;;;-0.22;64.72;99554.41;6215041;23;20005;-75
2021/11/28 06:25:04;;;;;;;3.13;0.32;;;;;;;-0.11;64.33;99568.19;6215957;23;20031;-75
2021/11/28 06:27:29;;;;;;;2.55;0.32;;;;;;;-0.23;65.23;99550.06;6214424;23;20011;-72
2021/11/28 06:29:58;;;;;;;4.90;0.40;;;;;;;-0.15;63.90;99558.91;6214559;23;20008;-72
2021/11/28 06:32:24;;;;;;;1.08;0.10;;;;;;;-0.12;64.09;99561.16;6213138;23;20008;-72
2021/11/28 06:34:49;;;;;;;0.25;0.13;;;;;;;-0.07;64.21;99580.16;6187823;23;20390;-73
2021/11/28 06:37:18;;;;;;;0.30;0.20;;;;;;;-0.11;63.98;99579.75;6214294;23;20057;-72
2021/11/28 06:39:44;;;;;;;0.55;0.20;;;;;;;-0.12;64.46;99579.97;6213838;23;20869;-72
2021/11/28 06:42:09;;;;;;;1.70;0.20;;;;;;;-0.02;64.24;99583.03;6214312;23;20036;-73
2021/11/28 06:44:35;;;;;;;0.17;0.15;;;;;;;-0.10;64.18;99559.06;6189176;23;20000;-72
2021/11/28 06:47:03;;;;;;;4.28;0.20;;;;;;;-0.09;65.24;99574.16;6164465;23;20419;-72
2021/11/28 06:49:34;;;;;;;1.20;0.20;;;;;;;-0.12;64.52;99561.16;6214909;23;20001;-72
2021/11/28 06:52:02;;;;;;;0.40;0.15;;;;;;;-0.14;64.81;99553.31;6216808;23;20005;-72
2021/11/28 06:54:28;;;;;;;1.02;0.43;;;;;;;0.05;64.31;99573.03;6190303;23;20004;-73
2021/11/28 06:56:53;;;;;;;0.40;0.20;;;;;;;-0.03;64.38;99570.59;6189444;23;20019;-73
2021/11/28 06:59:21;;;;;;;0.30;0.10;;;;;;;0.04;64.46;99584.81;6217139;23;20000;-75
2021/11/28 07:01:48;;;;;;;3.10;0.85;;;;;;;0.00;64.79;99570.19;6228417;23;20056;-74
2021/11/28 07:04:14;;;;;;;1.10;0.30;;;;;;;-0.14;64.13;99550.63;6205758;23;20009;-74
2021/11/28 07:06:42;;;;;;;0.95;0.30;;;;;;;-0.15;63.88;99564.28;6230747;23;20498;-72
2021/11/28 07:09:10;;;;;;;1.83;0.52;;;;;;;-0.04;65.02;99585.13;6190958;23;20015;-74
2021/11/28 07:11:36;;;;;;;0.20;0.10;;;;;;;-0.16;64.87;99565.31;6221068;23;20000;-74
2021/11/28 07:14:02;;;;;;;0.45;0.20;;;;;;;-0.06;63.57;99573.72;6195399;23;20068;-74
2021/11/28 07:16:37;;;;;;;0.70;0.30;;;;;;;-0.07;64.95;99577.47;6192390;23;20001;-73
2021/11/28 07:19:03;;;;;;;3.25;0.28;;;;;;;-0.19;64.45;99556.66;6185310;23;20021;-73
2021/11/28 07:21:35;;;;;;;0.70;0.08;;;;;;;-0.10;64.84;99572.50;6189896;23;20439;-74
2021/11/28 07:24:01;;;;;;;5.05;0.20;;;;;;;-0.12;63.58;99572.72;6185605;23;20028;-74
2021/11/28 07:26:27;;;;;;;9.07;0.38;;;;;;;-0.13;64.40;99581.00;6188014;23;20711;-76
2021/11/28 07:28:54;;;;;;;0.75;0.22;;;;;;;-0.17;64.20;99577.94;6160607;23;20036;-73
2021/11/28 07:31:20;;;;;;;3.50;0.13;;;;;;;-0.24;63.72;99580.66;6187331;23;20035;-72
2021/11/28 07:33:46;;;;;;;0.75;0.10;;;;;;;-0.30;64.04;99580.72;6189007;23;20388;-75
2021/11/28 07:36:11;;;;;;;0.85;0.13;;;;;;;-0.26;64.19;99587.31;6193049;23;20017;-74
2021/11/28 07:38:38;;;;;;;3.50;0.22;;;;;;;-0.20;64.07;99598.00;6192534;23;20001;-74
2021/11/28 07:41:06;;;;;;;2.42;0.25;;;;;;;-0.17;65.16;99596.75;6167681;23;20005;-73
2021/11/28 07:43:32;;;;;;;1.02;0.20;;;;;;;-0.08;64.07;99614.28;6192568;23;20009;-73
2021/11/28 07:45:58;;;;;;;0.28;0.10;;;;;;;-0.02;64.73;99605.34;6189079;23;20071;-73
2021/11/28 07:48:24;;;;;;;0.52;0.15;;;;;;;-0.07;63.96;99599.00;6190920;23;20008;-73
2021/11/28 07:50:58;;;;;;;0.40;0.15;;;;;;;0.06;64.56;99612.34;6193429;23;20451;-74
2021/11/28 07:53:27;;;;;;;1.30;0.30;;;;;;;0.07;63.85;99608.59;6194252;23;20001;-72
2021/11/28 07:56:44;;;;;;;5.28;0.55;;;;;;;-0.07;64.96;99585.53;6197652;23;20083;-75
2021/11/28 07:59:17;;;;;;;4.47;0.45;;;;;;;0.10;64.75;99608.19;6169706;23;20008;-73
2021/11/28 08:01:52;;;;;;;4.68;0.20;;;;;;;-0.01;64.28;99577.41;6197577;23;19997;-74
2021/11/28 08:04:20;;;;;;;2.35;0.35;;;;;;;-0.05;64.54;99572.69;6194705;23;20035;-74
2021/11/28 08:06:53;;;;;;;0.75;0.10;;;;;;;0.22;64.46;99615.53;6196082;23;20376;-75
2021/11/28 08:09:32;;;;;;;;;;;;;;;;;;;;;
2021/11/28 08:11:58;;;;;;;0.63;0.30;;;;;;;0.27;63.60;99613.84;6193649;23;20029;-74
2021/11/28 08:14:24;;;;;;;5.05;0.32;;;;;;;0.25;63.62;99597.09;6194720;23;20024;-74
2021/11/28 08:16:53;;;;;;;1.13;0.20;;;;;;;0.37;63.18;99618.72;6193695;23;20207;-72
2021/11/28 08:19:18;;;;;;;1.33;0.32;;;;;;;0.26;63.44;99600.59;6198745;23;20021;-73
2021/11/28 08:21:46;;;;;;;0.95;0.30;;;;;;;0.41;63.23;99619.94;6198884;23;20013;-73
2021/11/28 08:24:13;;;;;;;1.60;0.50;;;;;;;0.42;63.18;99629.66;6198755;23;20019;-72
2021/11/28 08:26:59;;;;;;;1.77;0.47;;;;;;;0.43;63.36;99623.22;6198289;23;20016;-73
2021/11/28 08:29:24;;;;;;;2.88;0.28;;;;;;;0.41;63.23;99625.34;6199042;23;20446;-73
2021/11/28 08:31:50;;;;;;;1.33;0.20;;;;;;;0.40;63.49;99615.59;6225285;23;20015;-72
2021/11/28 08:34:16;;;;;;;0.82;0.30;;;;;;;0.45;63.54;99621.16;6197541;23;20103;-73
2021/11/28 08:36:42;;;;;;;3.50;0.40;;;;;;;0.52;63.82;99621.91;6225394;23;20008;-73
2021/11/28 08:39:10;;;;;;;0.00;0.00;;;;;;;0.46;63.45;99605.84;6174389;23;20008;-72
2021/11/28 08:41:41;;;;;;;3.50;0.20;;;;;;;0.57;63.06;99623.13;6196795;23;20031;-71
2021/11/28 08:44:10;;;;;;;0.45;0.20;;;;;;;0.62;63.72;99626.00;6198510;23;20012;-74
2021/11/28 08:46:35;;;;;;;0.20;0.10;;;;;;;0.63;62.69;99625.75;6223384;23;20043;-74
2021/11/28 08:49:04;;;;;;;0.30;0.30;;;;;;;0.70;63.02;99633.75;6194358;23;20016;-73
2021/11/28 08:51:29;;;;;;;0.73;0.38;;;;;;;0.66;63.43;99616.44;6197108;23;20056;-75
2021/11/28 08:54:13;;;;;;;0.20;0.10;;;;;;;0.68;63.27;99614.34;6197783;23;20005;-74
2021/11/28 08:56:42;;;;;;;1.35;0.20;;;;;;;0.71;63.59;99608.50;6198751;23;20015;-72
2021/11/28 08:59:10;;;;;;;0.95;0.30;;;;;;;0.80;63.06;99619.81;6225505;23;20479;-76
2021/11/28 09:01:37;;;;;;;0.28;0.10;;;;;;;0.85;63.56;99620.00;6225669;23;20009;-74
2021/11/28 09:04:04;;;;;;;1.33;0.10;;;;;;;0.87;63.48;99613.31;6200040;23;20088;-76
2021/11/28 09:06:32;;;;;;;5.00;0.10;;;;;;;0.87;63.21;99602.53;6175932;23;20028;-75
2021/11/28 09:09:00;;;;;;;3.50;0.30;;;;;;;1.21;63.32;99635.34;6173859;23;20048;-76
2021/11/28 09:11:33;;;;;;;3.35;0.20;;;;;;;1.18;63.12;99608.88;6199878;23;19996;-75
2021/11/28 09:14:03;;;;;;;0.10;0.10;;;;;;;1.37;63.08;99616.94;6199759;23;20047;-75
2021/11/28 09:16:37;;;;;;;0.38;0.13;;;;;;;1.75;63.21;99623.91;6224638;23;20004;-74
2021/11/28 09:19:15;;;;;;;0.90;0.20;;;;;;;2.62;62.50;99611.84;6192562;23;20024;-76
2021/11/28 09:21:41;;;;;;;1.00;0.77;;;;;;;4.13;61.14;99636.34;6194339;23;20005;-74
2021/11/28 09:26:51;;;;;;;0.45;0.10;;;;;;;6.54;56.80;99646.13;6196432;23;20654;-75
2021/11/28 09:29:20;;;;;;;3.50;0.65;;;;;;;7.25;52.38;99645.00;6194527;23;20001;-73
2021/11/28 09:31:52;;;;;;;0.50;0.20;;;;;;;7.90;51.24;99645.59;6193599;23;20013;-75
2021/11/28 09:34:22;;;;;;;0.80;0.40;;;;;;;8.66;50.80;99632.38;6191555;23;20032;-75
2021/11/28 09:37:00;;;;;;;;;;;;;;;;;;;;;
2021/11/28 09:39:44;;;;;;;;;;;;;;;;;;;;;
2021/11/28 09:42:34;;;;;;;;;;;;;;;;;;;;;
2021/11/28 09:45:24;;;;;;;;;;;;;;;;;;;;;
2021/11/28 09:48:02;;;;;;;;;;;;;;;;;;;;;
2021/11/28 09:50:28;;;;;;;0.35;0.30;;;;;;;12.34;42.26;99651.09;6196882;23;20032;-77
2021/11/28 09:53:03;;;;;;;2.50;0.30;;;;;;;12.71;40.55;99641.19;6196808;23;20009;-75
2021/11/28 09:55:47;;;;;;;0.80;0.28;;;;;;;13.20;40.36;99647.22;6197624;23;20139;-74
2021/11/28 09:58:15;;;;;;;0.30;0.28;;;;;;;13.53;37.65;99640.88;6201561;23;20005;-74
2021/11/28 10:00:40;;;;;;;0.68;0.20;;;;;;;13.91;37.47;99652.44;6201050;23;20008;-75
2021/11/28 10:03:07;;;;;;;1.65;0.45;;;;;;;14.31;37.08;99655.44;6206472;23;20009;-76
2021/11/28 10:05:33;;;;;;;4.68;0.70;;;;;;;14.75;36.74;99658.59;6210916;23;20004;-77
2021/11/28 10:07:59;;;;;;;1.65;0.20;;;;;;;14.91;34.72;99655.44;6209020;23;20005;-74
2021/11/28 10:10:24;;;;;;;1.38;0.40;;;;;;;15.18;34.63;99648.97;6199475;23;20013;-73
2021/11/28 10:12:52;;;;;;;1.17;0.30;;;;;;;15.49;34.07;99653.66;6195196;23;20009;-78
2021/11/28 10:15:22;;;;;;;0.70;0.30;;;;;;;15.91;33.98;99658.84;6198005;23;20005;-79
2021/11/28 10:17:48;;;;;;;1.00;0.17;;;;;;;16.26;32.98;99648.69;6196878;23;20044;-76
2021/11/28 10:20:23;;;;;;;0.60;0.38;;;;;;;16.64;32.72;99669.31;6194329;23;20383;-75
2021/11/28 10:22:52;;;;;;;0.25;0.10;;;;;;;16.92;32.57;99661.53;6196573;23;20616;-76
2021/11/28 10:25:30;;;;;;;0.32;0.15;;;;;;;17.57;32.61;99667.84;6169393;23;20009;-75
2021/11/28 10:27:57;;;;;;;0.43;0.20;;;;;;;18.23;32.69;99671.28;6194022;23;20015;-75
2021/11/28 10:30:34;;;;;;;1.48;0.60;;;;;;;18.52;28.72;99662.09;6195085;23;20005;-77
2021/11/28 10:33:06;;;;;;;0.65;0.20;;;;;;;18.34;28.33;99663.38;6194881;23;20005;-80
2021/11/28 10:35:32;;;;;;;0.75;0.30;;;;;;;18.28;27.51;99651.69;6194400;23;20036;-74
2021/11/28 10:38:11;;;;;;;1.70;0.40;;;;;;;18.18;26.86;99647.38;6197553;23;20028;-79
2021/11/28 10:40:41;;;;;;;5.28;0.38;;;;;;;18.14;26.98;99651.97;6199225;23;20005;-80
2021/11/28 10:43:13;;;;;;;1.52;0.30;;;;;;;18.21;27.73;99641.16;6171913;23;20015;-78
2021/11/28 10:46:17;;;;;;;0.82;0.35;;;;;;;18.57;27.69;99650.81;6197180;23;20011;-81
2021/11/28 10:48:38;;;;;;;0.60;0.32;;;;;;;18.76;26.93;99643.97;6194923;23;20033;-82
2021/11/28 10:51:06;;;;;;;0.50;0.20;;;;;;;18.94;26.01;99634.38;6196370;23;20737;-77
2021/11/28 10:53:32;;;;;;;1.60;0.40;;;;;;;19.11;25.64;99632.56;6196694;23;20020;-84
2021/11/28 10:56:17;;;;;;;;;;;;;;;;;;;;;
2021/11/28 10:58:54;;;;;;;2.28;0.20;;;;;;;19.85;25.93;99646.53;6177658;23;20044;-80
2021/11/28 11:01:41;;;;;;;;;;;;;;;;;;;;;
2021/11/28 11:04:20;;;;;;;0.88;0.30;;;;;;;19.79;24.11;99634.06;6199282;23;20005;-79
2021/11/28 11:07:27;;;;;;;0.38;0.15;;;;;;;19.74;23.46;99631.47;6194407;23;20455;-77
2021/11/28 11:10:04;;;;;;;;;;;;;;;;;;;;;
2021/11/28 11:13:05;;;;;;;;;;;;;;;;;;;;;
2021/11/28 11:15:41;;;;;;;0.28;0.20;;;;;;;20.77;22.49;99626.69;6195170;23;20327;-82
2021/11/28 11:18:22;;;;;;;;;;;;;;;;;;;;;
2021/11/28 11:20:51;;;;;;;0.98;0.40;;;;;;;20.70;22.19;99594.72;6227108;23;19950;-78
2021/11/28 11:23:35;;;;;;;0.20;0.15;;;;;;;20.89;23.53;99624.63;6201307;23;20005;-77
2021/11/28 11:26:24;;;;;;;0.57;0.28;;;;;;;21.22;22.82;99614.38;6201099;23;20040;-78
2021/11/28 11:29:14;;;;;;;0.85;0.20;;;;;;;21.98;23.48;99614.25;6227877;23;20001;-79
2021/11/28 11:31:56;;;;;;;0.82;0.30;;;;;;;22.43;22.06;99607.28;6229613;23;20001;-81
2021/11/28 11:34:24;;;;;;;0.50;0.40;;;;;;;22.73;22.28;99600.31;6200287;23;20008;-78
2021/11/28 11:37:15;;;;;;;;;;;;;;;;;;;;;
2021/11/28 11:39:45;;;;;;;2.95;0.20;;;;;;;23.24;20.55;99602.88;6228230;23;20027;-80
2021/11/28 11:42:16;;;;;;;0.20;0.10;;;;;;;23.81;21.93;99616.94;6227711;23;19996;-85
2021/11/28 11:44:48;;;;;;;0.28;0.15;;;;;;;24.07;20.46;99603.38;6201513;23;20005;-81
2021/11/28 11:47:15;;;;;;;1.98;0.10;;;;;;;24.26;19.34;99622.78;6200843;23;20008;-81
2021/11/28 11:49:42;;;;;;;0.13;0.10;;;;;;;24.57;21.14;99620.78;6201676;23;20091;-80
2021/11/28 11:52:12;;;;;;;0.15;0.10;;;;;;;24.87;19.10;99598.41;6228245;23;20004;-83
2021/11/28 11:54:48;;;;;;;0.50;0.20;;;;;;;25.08;18.84;99585.81;6204137;23;20028;-81
2021/11/28 11:57:18;;;;;;;0.10;0.10;;;;;;;25.00;18.16;99586.91;6202639;23;20009;-82
2021/11/28 12:00:02;;;;;;;0.95;0.15;;;;;;;25.04;17.37;99605.38;6199449;23;20000;-75
2021/11/28 12:02:35;;;;;;;0.55;0.20;;;;;;;25.21;18.42;99601.13;6198403;23;20008;-75
2021/11/28 12:05:22;;;;;;;0.50;0.10;;;;;;;25.45;18.82;99596.16;6197351;23;19996;-76
2021/11/28 12:07:51;;;;;;;0.65;0.25;;;;;;;25.53;18.40;99583.03;6198150;23;20056;-75
2021/11/28 12:10:56;;;;;;;0.55;0.10;;;;;;;26.16;19.29;99589.44;6199304;23;20015;-74
2021/11/28 12:13:49;;;;;;;0.00;0.00;;;;;;;27.08;18.76;99592.19;6198124;23;20000;-74
2021/11/28 12:16:18;;;;;;;1.10;0.32;;;;;;;26.97;16.51;99576.13;6198076;23;20015;-76
2021/11/28 12:18:49;;;;;;;1.15;0.30;;;;;;;26.82;17.48;99575.31;6191285;23;20017;-74
2021/11/28 12:21:20;;;;;;;0.10;0.10;;;;;;;27.08;17.83;99592.19;6193342;23;20004;-73
2021/11/28 12:24:06;;;;;;;0.25;0.10;;;;;;;27.33;18.08;99581.78;6194132;23;20017;-73
2021/11/28 12:26:46;;;;;;;;;;;;;;;;;;;;;
2021/11/28 12:29:15;;;;;;;1.23;0.30;;;;;;;27.74;16.44;99593.81;6193499;23;20037;-72
2021/11/28 12:31:46;;;;;;;0.45;0.28;;;;;;;27.55;16.21;99576.16;6190768;23;20023;-75
2021/11/28 12:34:23;;;;;;;0.45;0.10;;;;;;;27.39;16.30;99578.59;6189099;23;20099;-73